Time;durP1;ratioP1;P1;durP2;ratioP2;P2;SDS_P1;SDS_P2;PMS_P1;PMS_P2;Temp;Humidity;BMP_temperature;BMP_pressure;BME280_temperature;BME280_humidity;BME280_pressure;Samples;Min_cycle;Max_cycle;Signal;HPM_P1;HPM_P2
2022/09/19 04:27:39;;;;;;;0.68;0.40;;;;;;;-145.06;100.00;60892.56;5919004;23;20029;-93
2022/09/19 04:30:55;;;;;;;0.97;0.47;;;;;;;-145.06;100.00;60892.56;5911294;23;20017;-93
2022/09/19 04:34:23;;;;;;;;;;;;;;;;;;;;;
2022/09/19 04:37:06;;;;;;;1.83;0.40;;;;;;;-145.06;100.00;60892.56;5892952;23;20006;-94
2022/09/19 04:39:48;;;;;;;1.05;0.50;;;;;;;-145.06;100.00;60892.56;5882569;23;20386;-92
2022/09/19 04:42:27;;;;;;;1.20;0.40;;;;;;;-145.06;100.00;60892.56;5882712;23;20010;-93
2022/09/19 04:45:07;;;;;;;0.60;0.50;;;;;;;-145.06;100.00;60892.56;5884373;23;20006;-93
2022/09/19 04:47:50;;;;;;;2.50;0.50;;;;;;;-145.06;100.00;60892.56;5884295;23;20073;-92
2022/09/19 04:50:40;;;;;;;1.58;0.65;;;;;;;-145.06;100.00;60892.56;5883409;23;20038;-91
2022/09/19 04:53:23;;;;;;;3.20;0.60;;;;;;;-145.06;100.00;60892.56;5884600;23;20291;-93
2022/09/19 04:56:05;;;;;;;0.80;0.40;;;;;;;-145.06;100.00;60892.56;5883446;23;20089;-93
2022/09/19 04:58:45;;;;;;;1.48;0.47;;;;;;;-145.06;100.00;60892.56;5883958;23;20014;-92
2022/09/19 05:01:26;;;;;;;1.83;0.60;;;;;;;-145.06;100.00;60892.56;5882746;23;20006;-92
2022/09/19 05:07:47;;;;;;;1.13;0.52;;;;;;;-145.06;100.00;60892.56;5874205;23;20014;-92
2022/09/19 05:10:26;;;;;;;1.17;0.47;;;;;;;-145.06;100.00;60892.56;5883740;23;20007;-93
2022/09/19 05:13:05;;;;;;;0.77;0.50;;;;;;;-145.06;100.00;60892.56;5884458;23;20006;-93
2022/09/19 05:15:45;;;;;;;0.73;0.50;;;;;;;-145.06;100.00;60892.56;5884142;23;20033;-93
2022/09/19 05:18:24;;;;;;;0.63;0.40;;;;;;;-145.06;100.00;60892.56;5881809;23;20011;-92
2022/09/19 05:21:09;;;;;;;1.10;0.40;;;;;;;-145.06;100.00;60892.56;5880054;23;20509;-93
2022/09/19 05:23:48;;;;;;;1.33;0.45;;;;;;;-145.06;100.00;60892.56;5873290;23;20015;-92
2022/09/19 05:26:27;;;;;;;1.88;0.73;;;;;;;-145.06;100.00;60892.56;5880934;23;20081;-92
2022/09/19 05:29:08;;;;;;;0.70;0.40;;;;;;;-145.06;100.00;60892.56;5880297;23;20018;-93
2022/09/19 05:31:46;;;;;;;;;;;;;;;-145.06;100.00;60892.56;5880801;23;20018;-92
2022/09/19 05:34:26;;;;;;;3.53;0.57;;;;;;;-145.06;100.00;60892.56;5880422;23;19972;-93
2022/09/19 05:37:05;;;;;;;0.90;0.52;;;;;;;-145.06;100.00;60892.56;5880889;23;20003;-92
2022/09/19 05:39:44;;;;;;;1.13;0.50;;;;;;;-145.06;100.00;60892.56;5880455;23;20014;-92
2022/09/19 05:42:23;;;;;;;0.47;0.45;;;;;;;-145.06;100.00;60892.56;5880732;23;20010;-93
2022/09/19 05:45:03;;;;;;;2.00;0.50;;;;;;;-145.06;100.00;60892.56;5880345;23;20081;-91
2022/09/19 05:47:42;;;;;;;1.00;0.30;;;;;;;-145.06;100.00;60892.56;5880187;23;20002;-92
2022/09/19 05:50:21;;;;;;;0.40;0.40;;;;;;;-145.06;100.00;60892.56;5879861;23;20046;-93
2022/09/19 05:56:00;;;;;;;1.10;0.52;;;;;;;-145.06;100.00;60892.56;5890866;23;20006;-93
2022/09/19 05:58:41;;;;;;;1.33;0.60;;;;;;;-145.06;100.00;60892.56;5880550;23;20097;-92
2022/09/19 06:01:20;;;;;;;0.55;0.30;;;;;;;-145.06;100.00;60892.56;5880547;23;20003;-93
2022/09/19 06:04:01;;;;;;;3.33;0.80;;;;;;;-145.06;100.00;60892.56;5880094;23;20010;-93
2022/09/19 06:06:40;;;;;;;1.63;0.60;;;;;;;-145.06;100.00;60892.56;5879346;23;20002;-92
2022/09/19 06:09:19;;;;;;;0.85;0.38;;;;;;;-145.06;100.00;60892.56;5879390;23;20085;-93
2022/09/19 06:11:59;;;;;;;2.17;0.55;;;;;;;-145.06;100.00;60892.56;5880571;23;20038;-92
2022/09/19 06:14:40;;;;;;;3.00;0.50;;;;;;;-145.06;100.00;60892.56;5879932;23;20011;-94
2022/09/19 06:17:20;;;;;;;2.13;0.77;;;;;;;-145.06;100.00;60892.56;5881149;23;20247;-92
2022/09/19 06:19:59;;;;;;;0.93;0.40;;;;;;;-145.06;100.00;60892.56;5881547;23;20450;-92
2022/09/19 06:22:38;;;;;;;1.00;0.43;;;;;;;-145.06;100.00;60892.56;5881330;23;20599;-93
2022/09/19 06:25:17;;;;;;;0.73;0.40;;;;;;;-145.06;100.00;60892.56;5881377;23;20018;-93
2022/09/19 06:27:58;;;;;;;2.08;0.40;;;;;;;-145.06;100.00;60892.56;5881462;23;20006;-92
2022/09/19 06:30:37;;;;;;;2.90;0.68;;;;;;;-145.06;100.00;60892.56;5881812;23;20014;-92
2022/09/19 06:33:16;;;;;;;0.70;0.30;;;;;;;-145.06;100.00;60892.56;5881457;23;20173;-91
2022/09/19 06:35:57;;;;;;;0.63;0.50;;;;;;;-145.06;100.00;60892.56;5881386;23;20006;-93
2022/09/19 06:38:40;;;;;;;1.50;0.50;;;;;;;-145.06;100.00;60892.56;5879980;23;20010;-92
2022/09/19 06:41:19;;;;;;;1.50;0.45;;;;;;;-145.06;100.00;60892.56;5892241;23;20010;-93
2022/09/19 06:44:04;;;;;;;1.20;0.47;;;;;;;-145.06;100.00;60892.56;5882844;23;20029;-93
2022/09/19 06:46:44;;;;;;;1.15;0.50;;;;;;;-145.06;100.00;60892.56;5883838;23;20030;-92
2022/09/19 06:49:23;;;;;;;1.50;0.40;;;;;;;-145.06;100.00;60892.56;5883127;23;20011;-92
2022/09/19 06:52:02;;;;;;;1.88;0.50;;;;;;;-145.06;100.00;60892.56;5882153;23;20011;-92
2022/09/19 06:54:41;;;;;;;;;;;;;;;-145.06;100.00;60892.56;5882694;23;20038;-93
2022/09/19 06:57:21;;;;;;;2.07;0.70;;;;;;;-145.06;100.00;60892.56;5882421;23;19929;-91
2022/09/19 07:00:00;;;;;;;1.33;0.57;;;;;;;-145.06;100.00;60892.56;5882836;23;20010;-93
2022/09/19 07:02:40;;;;;;;1.27;0.50;;;;;;;-145.06;100.00;60892.56;5882753;23;20006;-93
2022/09/19 07:05:20;;;;;;;;;;;;;;;-145.06;100.00;60892.56;5883266;23;20007;-93
2022/09/19 07:08:00;;;;;;;1.52;0.50;;;;;;;-145.06;100.00;60892.56;5882390;23;19909;-91
2022/09/19 07:10:39;;;;;;;1.42;0.60;;;;;;;-145.06;100.00;60892.56;5882459;23;20326;-93
2022/09/19 07:13:19;;;;;;;;;;;;;;;-145.06;100.00;60892.56;5882583;23;20006;-93
2022/09/19 07:16:02;;;;;;;1.27;0.60;;;;;;;-145.06;100.00;60892.56;5881407;23;19905;-92
2022/09/19 07:18:41;;;;;;;1.15;0.63;;;;;;;-145.06;100.00;60892.56;5882916;23;20006;-92
2022/09/19 07:21:20;;;;;;;1.20;0.60;;;;;;;-145.06;100.00;60892.56;5882382;23;20010;-93
2022/09/19 07:24:01;;;;;;;2.00;0.80;;;;;;;-145.06;100.00;60892.56;5882170;23;20014;-91
2022/09/19 07:26:40;;;;;;;1.83;0.80;;;;;;;-145.06;100.00;60892.56;5882909;23;20425;-92
2022/09/19 07:29:19;;;;;;;1.50;0.90;;;;;;;-145.06;100.00;60892.56;5882453;23;20014;-93
2022/09/19 07:32:01;;;;;;;1.30;0.80;;;;;;;-145.06;100.00;60892.56;5882164;23;20007;-93
2022/09/19 07:34:40;;;;;;;1.40;0.75;;;;;;;-145.06;100.00;60892.56;5882464;23;20010;-94
2022/09/19 07:37:19;;;;;;;2.27;0.90;;;;;;;-145.06;100.00;60892.56;5881926;23;20006;-94
2022/09/19 07:39:59;;;;;;;2.33;0.70;;;;;;;-145.06;100.00;60892.56;5881988;23;20438;-93
2022/09/19 07:42:38;;;;;;;0.95;0.75;;;;;;;-145.06;100.00;60892.56;5878862;23;20015;-92
2022/09/19 07:45:18;;;;;;;2.53;0.63;;;;;;;-145.06;100.00;60892.56;5881313;23;20010;-91
2022/09/19 07:47:57;;;;;;;2.28;0.70;;;;;;;-145.06;100.00;60892.56;5883201;23;20006;-94
2022/09/19 07:50:37;;;;;;;1.47;0.57;;;;;;;-145.06;100.00;60892.56;5883152;23;20011;-93
2022/09/19 07:53:18;;;;;;;1.67;0.60;;;;;;;-145.06;100.00;60892.56;5881761;23;20239;-90
2022/09/19 07:55:57;;;;;;;1.48;0.50;;;;;;;-145.06;100.00;60892.56;5882024;23;20010;-92
2022/09/19 07:58:36;;;;;;;1.70;0.60;;;;;;;-145.06;100.00;60892.56;5881233;23;20034;-90
2022/09/19 08:01:15;;;;;;;1.27;0.50;;;;;;;-145.06;100.00;60892.56;5882592;23;20010;-92
2022/09/19 08:03:54;;;;;;;2.63;0.77;;;;;;;-145.06;100.00;60892.56;5881511;23;20247;-92
2022/09/19 08:06:33;;;;;;;2.03;0.60;;;;;;;-145.06;100.00;60892.56;5882612;23;20003;-93
2022/09/19 08:09:12;;;;;;;0.57;0.37;;;;;;;-145.06;100.00;60892.56;5882134;23;20006;-92
2022/09/19 08:11:51;;;;;;;1.93;0.60;;;;;;;-145.06;100.00;60892.56;5882030;23;20011;-91
2022/09/19 08:14:30;;;;;;;1.63;0.50;;;;;;;-145.06;100.00;60892.56;5881866;23;20239;-91
2022/09/19 08:17:09;;;;;;;1.58;0.60;;;;;;;-145.06;100.00;60892.56;5881983;23;20006;-92
2022/09/19 08:19:48;;;;;;;1.02;0.60;;;;;;;-145.06;100.00;60892.56;5882041;23;20011;-91
2022/09/19 08:22:28;;;;;;;1.50;0.60;;;;;;;-145.06;100.00;60892.56;5882261;23;20173;-91
2022/09/19 08:25:07;;;;;;;1.85;0.50;;;;;;;-145.06;100.00;60892.56;5881726;23;20010;-93
2022/09/19 08:27:47;;;;;;;2.00;0.73;;;;;;;-145.06;100.00;60892.56;5882627;23;20307;-92
2022/09/19 08:30:28;;;;;;;3.53;0.80;;;;;;;-145.06;100.00;60892.56;5882065;23;20006;-90
2022/09/19 08:33:09;;;;;;;1.77;0.50;;;;;;;-145.06;100.00;60892.56;5882426;23;20010;-92
2022/09/19 08:35:48;;;;;;;3.13;0.80;;;;;;;-145.06;100.00;60892.56;5881655;23;20322;-92
2022/09/19 08:38:27;;;;;;;1.80;0.65;;;;;;;-145.06;100.00;60892.56;5882341;23;20010;-91
2022/09/19 08:41:45;;;;;;;2.73;1.00;;;;;;;-145.06;100.00;60892.56;5882318;23;20070;-92
2022/09/19 08:44:45;;;;;;;2.55;0.70;;;;;;;-145.06;100.00;60892.56;5832176;23;20263;-91
2022/09/19 08:47:30;;;;;;;2.28;0.50;;;;;;;-145.06;100.00;60892.56;5832452;23;20003;-93
2022/09/19 08:50:25;;;;;;;2.70;0.77;;;;;;;-145.06;100.00;60892.56;5880520;23;20014;-91
2022/09/19 08:53:12;;;;;;;0.68;0.40;;;;;;;-145.06;100.00;60892.56;5882021;23;20006;-92
2022/09/19 08:55:54;;;;;;;1.83;0.70;;;;;;;-145.06;100.00;60892.56;5881969;23;20430;-91
2022/09/19 08:58:42;;;;;;;3.80;1.10;;;;;;;-145.06;100.00;60892.56;5883921;23;20010;-90
2022/09/19 09:01:22;;;;;;;1.73;0.73;;;;;;;-145.06;100.00;60892.56;5883366;23;20034;-91
2022/09/19 09:04:13;;;;;;;0.90;0.40;;;;;;;-145.06;100.00;60892.56;5883387;23;20011;-90
2022/09/19 09:07:11;;;;;;;1.30;0.50;;;;;;;-145.06;100.00;60892.56;5883212;23;20003;-90
2022/09/19 09:10:18;;;;;;;2.25;0.80;;;;;;;-145.06;100.00;60892.56;5883231;23;20010;-90
2022/09/19 09:13:24;;;;;;;2.28;0.50;;;;;;;-145.06;100.00;60892.56;5884096;23;20006;-91
2022/09/19 09:16:38;;;;;;;2.50;0.68;;;;;;;-145.06;100.00;60892.56;5883233;23;20079;-93
2022/09/19 09:19:38;;;;;;;1.35;0.50;;;;;;;-145.06;100.00;60892.56;5883589;23;20085;-91
2022/09/19 09:22:20;;;;;;;3.05;1.05;;;;;;;-145.06;100.00;60892.56;5883427;23;20002;-93
2022/09/19 09:25:09;;;;;;;1.15;0.55;;;;;;;-145.06;100.00;60892.56;5883566;23;20251;-91
2022/09/19 09:28:16;;;;;;;2.92;0.82;;;;;;;-145.06;100.00;60892.56;5883484;23;20006;-91
2022/09/19 09:31:23;;;;;;;3.38;0.70;;;;;;;-145.06;100.00;60892.56;5883732;23;20006;-94
2022/09/19 09:34:23;;;;;;;2.03;0.73;;;;;;;-145.06;100.00;60892.56;5883639;23;20073;-90
2022/09/19 09:37:20;;;;;;;3.50;0.57;;;;;;;-145.06;100.00;60892.56;5882974;23;20006;-91
2022/09/19 09:40:12;;;;;;;1.52;0.57;;;;;;;-145.06;100.00;60892.56;5883286;23;20342;-91
2022/09/19 09:43:05;;;;;;;3.42;0.50;;;;;;;-145.06;100.00;60892.56;5883260;23;20006;-92
2022/09/19 09:45:50;;;;;;;1.70;0.50;;;;;;;-145.06;100.00;60892.56;5883234;23;20006;-91
2022/09/19 09:48:34;;;;;;;1.33;0.50;;;;;;;-145.06;100.00;60892.56;5883228;23;20030;-92
2022/09/19 09:51:27;;;;;;;1.77;0.65;;;;;;;-145.06;100.00;60892.56;5883280;23;20006;-92
2022/09/19 09:57:52;;;;;;;1.85;0.65;;;;;;;-145.06;100.00;60892.56;5893504;23;20007;-91
2022/09/19 10:03:44;;;;;;;1.02;0.60;;;;;;;-145.06;100.00;60892.56;5893513;23;20038;-92
2022/09/19 10:06:34;;;;;;;1.48;0.60;;;;;;;-145.06;100.00;60892.56;5882451;23;20033;-93
2022/09/19 10:09:19;;;;;;;1.38;0.40;;;;;;;-145.06;100.00;60892.56;5882768;23;20006;-93
2022/09/19 10:12:06;;;;;;;1.52;0.47;;;;;;;-145.06;100.00;60892.56;5883116;23;20036;-92
2022/09/19 10:14:46;;;;;;;1.52;0.40;;;;;;;-145.06;100.00;60892.56;5883217;23;20010;-92
2022/09/19 10:17:33;;;;;;;1.88;0.50;;;;;;;-145.06;100.00;60892.56;5883036;23;20082;-92
2022/09/19 10:20:22;;;;;;;1.00;0.40;;;;;;;-145.06;100.00;60892.56;5883478;23;20033;-94
2022/09/19 10:23:01;;;;;;;2.30;0.50;;;;;;;-145.06;100.00;60892.56;5885258;23;20003;-92
2022/09/19 10:25:50;;;;;;;2.15;0.45;;;;;;;-145.06;100.00;60892.56;5882642;23;20085;-93
2022/09/19 10:28:33;;;;;;;0.40;0.28;;;;;;;-145.06;100.00;60892.56;5882846;23;20003;-91
2022/09/19 10:31:34;;;;;;;1.60;0.55;;;;;;;-145.06;100.00;60892.56;5882068;23;20010;-92
2022/09/19 10:34:27;;;;;;;3.42;0.60;;;;;;;-145.06;100.00;60892.56;5882638;23;20014;-91
2022/09/19 10:37:14;;;;;;;1.63;0.50;;;;;;;-145.06;100.00;60892.56;5883153;23;20002;-92
2022/09/19 10:40:25;;;;;;;0.95;0.40;;;;;;;-145.06;100.00;60892.56;5882877;23;20002;-92
2022/09/19 10:43:04;;;;;;;1.30;0.60;;;;;;;-145.06;100.00;60892.56;5882914;23;20006;-92
2022/09/19 10:45:52;;;;;;;1.15;0.50;;;;;;;-145.06;100.00;60892.56;5882774;23;20010;-92
2022/09/19 10:49:14;;;;;;;1.52;0.45;;;;;;;-145.06;100.00;60892.56;5882992;23;20006;-93
2022/09/19 10:51:56;;;;;;;1.02;0.40;;;;;;;-145.06;100.00;60892.56;5882883;23;20303;-94
2022/09/19 10:54:44;;;;;;;1.00;0.40;;;;;;;-145.06;100.00;60892.56;5883326;23;20449;-93
2022/09/19 10:57:45;;;;;;;1.98;0.50;;;;;;;-145.06;100.00;60892.56;5882909;23;20010;-92
2022/09/19 11:00:57;;;;;;;0.82;0.40;;;;;;;-145.06;100.00;60892.56;5882894;23;20010;-91
2022/09/19 11:03:39;;;;;;;1.98;0.47;;;;;;;-145.06;100.00;60892.56;5883377;23;20089;-93
2022/09/19 11:06:27;;;;;;;2.95;0.50;;;;;;;-145.06;100.00;60892.56;5883170;23;20006;-93
2022/09/19 11:09:31;;;;;;;1.48;0.50;;;;;;;-145.06;100.00;60892.56;5882727;23;20006;-92
2022/09/19 11:12:16;;;;;;;0.88;0.30;;;;;;;-145.06;100.00;60892.56;5882650;23;20311;-93
2022/09/19 11:14:56;;;;;;;1.25;0.60;;;;;;;-145.06;100.00;60892.56;5882457;23;20033;-92
2022/09/19 11:18:01;;;;;;;1.25;0.40;;;;;;;-145.06;100.00;60892.56;5882482;23;20006;-92
2022/09/19 11:20:55;;;;;;;1.25;0.40;;;;;;;-145.06;100.00;60892.56;5882308;23;20021;-92
2022/09/19 11:23:52;;;;;;;1.55;0.47;;;;;;;-145.06;100.00;60892.56;5882696;23;20010;-93
2022/09/19 11:27:21;;;;;;;;;;;;;;;;;;;;;
2022/09/19 11:30:26;;;;;;;1.88;0.50;;;;;;;-145.06;100.00;60892.56;5893053;23;20077;-93
2022/09/19 11:33:43;;;;;;;1.25;0.57;;;;;;;-145.06;100.00;60892.56;5862248;23;20006;-93
2022/09/19 11:36:38;;;;;;;0.47;0.30;;;;;;;-145.06;100.00;60892.56;5882432;23;20006;-93
2022/09/19 11:39:55;;;;;;;0.70;0.30;;;;;;;-145.06;100.00;60892.56;5882349;23;20007;-92
2022/09/19 11:43:13;;;;;;;0.90;0.40;;;;;;;-145.06;100.00;60892.56;5881591;23;19998;-93
2022/09/19 11:46:19;;;;;;;1.65;0.38;;;;;;;-145.06;100.00;60892.56;5883201;23;20002;-92
2022/09/19 11:49:32;;;;;;;1.10;0.30;;;;;;;-145.06;100.00;60892.56;5863055;23;20002;-95
2022/09/19 11:52:37;;;;;;;0.60;0.30;;;;;;;-145.06;100.00;60892.56;5882607;23;20078;-94
2022/09/19 11:59:24;;;;;;;1.65;0.50;;;;;;;-145.06;100.00;60892.56;5882106;23;20437;-91
2022/09/19 12:02:37;;;;;;;1.25;0.47;;;;;;;-145.06;100.00;60892.56;5882502;23;20038;-92
2022/09/19 12:05:42;;;;;;;1.27;0.32;;;;;;;-145.06;100.00;60892.56;5882652;23;19999;-91
2022/09/19 12:08:50;;;;;;;1.00;0.50;;;;;;;-145.06;100.00;60892.56;5882195;23;20003;-91
2022/09/19 12:11:42;;;;;;;1.08;0.30;;;;;;;-145.06;100.00;60892.56;5867621;23;20426;-93
2022/09/19 12:14:31;;;;;;;1.23;0.50;;;;;;;-145.06;100.00;60892.56;5883146;23;20006;-93
2022/09/19 12:21:39;;;;;;;1.30;0.50;;;;;;;-145.06;100.00;60892.56;5862963;23;20003;-93
2022/09/19 12:25:17;;;;;;;0.80;0.20;;;;;;;-145.06;100.00;60892.56;5831878;23;20003;-94
2022/09/19 12:34:55;;;;;;;0.88;0.40;;;;;;;-145.06;100.00;60892.56;5846661;23;20327;-93
2022/09/19 12:38:12;;;;;;;;;;;;;;;;;;;;;
2022/09/19 14:13:43;;;;;;;1.35;0.32;;;;;;;-145.06;100.00;60892.56;5925023;23;20010;-93
2022/09/19 14:16:39;;;;;;;2.15;0.68;;;;;;;-145.06;100.00;60892.56;5923195;23;20334;-94
2022/09/19 14:23:20;;;;;;;1.35;0.40;;;;;;;-145.06;100.00;60892.56;5839251;23;20088;-93
2022/09/19 14:33:24;;;;;;;0.65;0.30;;;;;;;-145.06;100.00;60892.56;5900045;23;20013;-93
2022/09/19 14:40:55;;;;;;;;;;;;;;;;;;;;;
2022/09/19 14:44:49;;;;;;;;;;;;;;;;;;;;;
2022/09/19 15:10:20;;;;;;;2.67;0.40;;;;;;;-145.06;100.00;60892.56;5854594;23;20019;-92
2022/09/19 15:13:33;;;;;;;0.75;0.40;;;;;;;-145.06;100.00;60892.56;5911988;23;20002;-92
2022/09/19 15:26:36;;;;;;;3.58;0.55;;;;;;;-145.06;100.00;60892.56;5918568;23;19999;-92
2022/09/19 15:29:50;;;;;;;0.40;0.40;;;;;;;-145.06;100.00;60892.56;5913905;23;20035;-93
2022/09/19 15:32:49;;;;;;;0.63;0.30;;;;;;;-145.06;100.00;60892.56;5909126;23;20433;-93
2022/09/19 15:37:54;;;;;;;0.22;0.15;;;;;;;-145.06;100.00;60892.56;5888624;23;20029;-92
2022/09/19 15:40:38;;;;;;;0.40;0.25;;;;;;;-145.06;100.00;60892.56;5885212;23;20026;-93
2022/09/19 15:43:20;;;;;;;0.90;0.25;;;;;;;-145.06;100.00;60892.56;5883882;23;20002;-92
2022/09/19 15:49:46;;;;;;;1.08;0.30;;;;;;;-145.06;100.00;60892.56;5874224;23;20006;-92
2022/09/19 15:52:39;;;;;;;1.42;0.30;;;;;;;-145.06;100.00;60892.56;5883375;23;20085;-92
2022/09/19 15:55:29;;;;;;;3.83;0.73;;;;;;;-145.06;100.00;60892.56;5883990;23;20006;-93
2022/09/19 15:58:20;;;;;;;0.75;0.30;;;;;;;-145.06;100.00;60892.56;5883688;23;20003;-92
2022/09/19 16:01:21;;;;;;;0.88;0.20;;;;;;;-145.06;100.00;60892.56;5883853;23;20037;-93
2022/09/19 16:04:07;;;;;;;0.55;0.30;;;;;;;-145.06;100.00;60892.56;5883883;23;20007;-93
2022/09/19 16:10:08;;;;;;;0.30;0.20;;;;;;;-145.06;100.00;60892.56;5895621;23;20006;-93
2022/09/19 16:12:50;;;;;;;0.28;0.20;;;;;;;-145.06;100.00;60892.56;5884387;23;20497;-92
2022/09/19 16:15:43;;;;;;;0.82;0.47;;;;;;;-145.06;100.00;60892.56;5883740;23;20030;-91
2022/09/19 16:18:22;;;;;;;1.60;0.63;;;;;;;-145.06;100.00;60892.56;5883674;23;20011;-94
2022/09/19 16:21:08;;;;;;;3.00;1.20;;;;;;;-145.06;100.00;60892.56;5884524;23;20010;-92
2022/09/19 16:23:51;;;;;;;2.33;1.08;;;;;;;-145.06;100.00;60892.56;5884159;23;20025;-92
2022/09/19 16:26:32;;;;;;;2.60;1.42;;;;;;;-145.06;100.00;60892.56;5884733;23;20540;-92
2022/09/19 16:29:12;;;;;;;3.28;1.60;;;;;;;-145.06;100.00;60892.56;5885716;23;20323;-93
2022/09/19 16:31:54;;;;;;;2.30;1.30;;;;;;;-145.06;100.00;60892.56;5884134;23;20382;-92
2022/09/19 16:34:37;;;;;;;1.30;0.77;;;;;;;-145.06;100.00;60892.56;5883583;23;20030;-92
2022/09/19 16:37:39;;;;;;;1.50;0.75;;;;;;;-145.06;100.00;60892.56;5883657;23;20041;-92
2022/09/19 16:40:26;;;;;;;1.80;0.70;;;;;;;-145.06;100.00;60892.56;5883901;23;20006;-93
2022/09/19 16:43:38;;;;;;;2.55;0.60;;;;;;;-145.06;100.00;60892.56;5883211;23;20006;-93
2022/09/19 16:46:19;;;;;;;0.90;0.60;;;;;;;-145.06;100.00;60892.56;5882500;23;20032;-93
2022/09/19 16:48:58;;;;;;;0.93;0.50;;;;;;;-145.06;100.00;60892.56;5880994;23;20011;-93
2022/09/19 16:51:38;;;;;;;0.85;0.47;;;;;;;-145.06;100.00;60892.56;5881304;23;20015;-93
2022/09/19 16:54:18;;;;;;;0.65;0.30;;;;;;;-145.06;100.00;60892.56;5882010;23;20340;-92
2022/09/19 16:56:58;;;;;;;;;;;;;;;-145.06;100.00;60892.56;5882281;23;20010;-93
2022/09/19 16:59:38;;;;;;;;;;;;;;;-145.06;100.00;60892.56;5881688;23;19909;-91
2022/09/19 17:02:29;;;;;;;1.90;0.80;;;;;;;-145.06;100.00;60892.56;5881435;23;19909;-93
2022/09/19 17:05:27;;;;;;;2.53;0.90;;;;;;;-145.06;100.00;60892.56;5880716;23;20036;-93
2022/09/19 17:08:06;;;;;;;2.05;0.80;;;;;;;-145.06;100.00;60892.56;5880495;23;20002;-92
2022/09/19 17:10:47;;;;;;;1.48;0.65;;;;;;;-145.06;100.00;60892.56;5880323;23;20097;-92
2022/09/19 17:13:26;;;;;;;1.95;0.70;;;;;;;-145.06;100.00;60892.56;5881434;23;20010;-94
2022/09/19 17:16:12;;;;;;;1.30;0.70;;;;;;;-145.06;100.00;60892.56;5880862;23;20014;-94
2022/09/19 17:18:51;;;;;;;1.50;0.60;;;;;;;-145.06;100.00;60892.56;5880878;23;20196;-92
2022/09/19 17:21:30;;;;;;;2.17;0.90;;;;;;;-145.06;100.00;60892.56;5881261;23;20069;-92
2022/09/19 17:24:13;;;;;;;1.70;0.70;;;;;;;-145.06;100.00;60892.56;5881326;23;20010;-93
2022/09/19 17:26:52;;;;;;;1.85;0.70;;;;;;;-145.06;100.00;60892.56;5881365;23;20235;-93
2022/09/19 17:29:31;;;;;;;1.23;0.57;;;;;;;-145.06;100.00;60892.56;5880649;23;20010;-93
2022/09/19 17:32:11;;;;;;;1.60;0.40;;;;;;;-145.06;100.00;60892.56;5881516;23;20014;-93
2022/09/19 17:34:51;;;;;;;1.17;0.40;;;;;;;-145.06;100.00;60892.56;5880657;23;20394;-92
2022/09/19 17:37:32;;;;;;;1.20;0.63;;;;;;;-145.06;100.00;60892.56;5880444;23;20046;-93
2022/09/19 17:40:11;;;;;;;2.10;0.55;;;;;;;-145.06;100.00;60892.56;5880479;23;20441;-93
2022/09/19 17:42:51;;;;;;;1.05;0.52;;;;;;;-145.06;100.00;60892.56;5880432;23;20014;-93
2022/09/19 17:45:32;;;;;;;1.33;0.57;;;;;;;-145.06;100.00;60892.56;5880610;23;20465;-93
2022/09/19 17:48:14;;;;;;;1.02;0.50;;;;;;;-145.06;100.00;60892.56;5879898;23;20042;-93
2022/09/19 17:50:54;;;;;;;2.20;0.50;;;;;;;-145.06;100.00;60892.56;5878941;23;20311;-92
2022/09/19 17:53:34;;;;;;;0.70;0.40;;;;;;;-145.06;100.00;60892.56;5879992;23;20441;-93
2022/09/19 17:56:13;;;;;;;0.75;0.32;;;;;;;-145.06;100.00;60892.56;5879430;23;20014;-93
2022/09/19 17:58:54;;;;;;;0.85;0.38;;;;;;;-145.06;100.00;60892.56;5880405;23;20041;-92
2022/09/19 18:04:39;;;;;;;1.58;0.40;;;;;;;-145.06;100.00;60892.56;5889908;23;20014;-91
2022/09/19 18:07:18;;;;;;;0.70;0.30;;;;;;;-145.06;100.00;60892.56;5879928;23;20438;-92
2022/09/19 18:09:57;;;;;;;0.95;0.30;;;;;;;-145.06;100.00;60892.56;5880425;23;20014;-93
2022/09/19 18:12:36;;;;;;;1.48;0.40;;;;;;;-145.06;100.00;60892.56;5879984;23;20445;-93
2022/09/19 18:15:18;;;;;;;1.07;0.50;;;;;;;-145.06;100.00;60892.56;5880181;23;20015;-92
2022/09/19 18:17:58;;;;;;;1.65;0.60;;;;;;;-145.06;100.00;60892.56;5879612;23;20255;-93
2022/09/19 18:20:37;;;;;;;1.10;0.57;;;;;;;-145.06;100.00;60892.56;5880241;23;20430;-94
2022/09/19 18:23:16;;;;;;;1.42;0.70;;;;;;;-145.06;100.00;60892.56;5880405;23;20343;-93
2022/09/19 18:25:58;;;;;;;0.75;0.50;;;;;;;-145.06;100.00;60892.56;5880341;23;20010;-93
2022/09/19 18:28:37;;;;;;;1.33;0.70;;;;;;;-145.06;100.00;60892.56;5879261;23;20006;-91
2022/09/19 18:31:16;;;;;;;1.20;0.70;;;;;;;-145.06;100.00;60892.56;5880193;23;20014;-92
2022/09/19 18:33:55;;;;;;;2.08;0.90;;;;;;;-145.06;100.00;60892.56;5879966;23;20006;-92
2022/09/19 18:36:35;;;;;;;0.90;0.70;;;;;;;-145.06;100.00;60892.56;5880227;23;20093;-92
2022/09/19 18:39:14;;;;;;;1.15;0.65;;;;;;;-145.06;100.00;60892.56;5879969;23;20082;-92
2022/09/19 18:41:53;;;;;;;1.45;0.90;;;;;;;-145.06;100.00;60892.56;5880222;23;20014;-93
2022/09/19 18:44:39;;;;;;;1.08;0.73;;;;;;;-145.06;100.00;60892.56;5880349;23;20010;-93
2022/09/19 18:47:18;;;;;;;0.95;0.70;;;;;;;-145.06;100.00;60892.56;5879717;23;20006;-92
2022/09/19 18:49:58;;;;;;;2.50;0.80;;;;;;;-145.06;100.00;60892.56;5880012;23;20314;-93
2022/09/19 18:52:41;;;;;;;1.45;0.65;;;;;;;-145.06;100.00;60892.56;5879547;23;20010;-93
2022/09/19 18:55:20;;;;;;;2.70;0.70;;;;;;;-145.06;100.00;60892.56;5878994;23;20010;-91
2022/09/19 18:58:01;;;;;;;1.05;0.55;;;;;;;-145.06;100.00;60892.56;5879050;23;20015;-92
2022/09/19 19:00:44;;;;;;;1.10;0.60;;;;;;;-145.06;100.00;60892.56;5880160;23;20014;-92
2022/09/19 19:03:23;;;;;;;0.80;0.50;;;;;;;-145.06;100.00;60892.56;5879570;23;20030;-93
2022/09/19 19:06:07;;;;;;;0.93;0.40;;;;;;;-145.06;100.00;60892.56;5878118;23;20461;-91
2022/09/19 19:08:46;;;;;;;1.40;0.47;;;;;;;-145.06;100.00;60892.56;5878025;23;20010;-92
2022/09/19 19:11:30;;;;;;;1.10;0.40;;;;;;;-145.06;100.00;60892.56;5879676;23;20010;-95
2022/09/19 19:14:09;;;;;;;1.10;0.40;;;;;;;-145.06;100.00;60892.56;5879313;23;20239;-94
2022/09/19 19:16:49;;;;;;;0.80;0.50;;;;;;;-145.06;100.00;60892.56;5879700;23;20045;-92
2022/09/19 19:19:28;;;;;;;1.42;0.47;;;;;;;-145.06;100.00;60892.56;5879005;23;20010;-93
2022/09/19 19:22:07;;;;;;;1.15;0.30;;;;;;;-145.06;100.00;60892.56;5878596;23;20389;-92
2022/09/19 19:24:46;;;;;;;0.65;0.35;;;;;;;-145.06;100.00;60892.56;5879223;23;20097;-92
2022/09/19 19:27:28;;;;;;;1.10;0.57;;;;;;;-145.06;100.00;60892.56;5879087;23;20359;-91
2022/09/19 19:30:07;;;;;;;0.68;0.35;;;;;;;-145.06;100.00;60892.56;5878879;23;20430;-93
2022/09/19 19:32:46;;;;;;;0.60;0.38;;;;;;;-145.06;100.00;60892.56;5879201;23;20006;-93
2022/09/19 19:35:25;;;;;;;0.85;0.40;;;;;;;-145.06;100.00;60892.56;5879124;23;20010;-92
2022/09/19 19:38:04;;;;;;;0.50;0.35;;;;;;;-145.06;100.00;60892.56;5879811;23;20018;-90
2022/09/19 19:40:44;;;;;;;1.00;0.30;;;;;;;-145.06;100.00;60892.56;5879332;23;20014;-94
2022/09/19 19:43:23;;;;;;;0.40;0.30;;;;;;;-145.06;100.00;60892.56;5879059;23;20239;-92
2022/09/19 19:46:02;;;;;;;0.52;0.30;;;;;;;-145.06;100.00;60892.56;5879869;23;20011;-93
2022/09/19 19:48:42;;;;;;;0.52;0.40;;;;;;;-145.06;100.00;60892.56;5878971;23;20010;-92
2022/09/19 19:51:24;;;;;;;2.28;0.60;;;;;;;-145.06;100.00;60892.56;5878424;23;20014;-92
2022/09/19 19:54:03;;;;;;;0.52;0.20;;;;;;;-145.06;100.00;60892.56;5879320;23;20318;-94
2022/09/19 19:56:45;;;;;;;0.43;0.20;;;;;;;-145.06;100.00;60892.56;5879166;23;20015;-93
2022/09/19 19:59:26;;;;;;;0.90;0.32;;;;;;;-145.06;100.00;60892.56;5879226;23;20011;-91
2022/09/19 20:02:05;;;;;;;1.48;0.22;;;;;;;-145.06;100.00;60892.56;5879438;23;20372;-93
2022/09/19 20:04:44;;;;;;;0.68;0.28;;;;;;;-145.06;100.00;60892.56;5878790;23;20010;-92
2022/09/19 20:07:23;;;;;;;0.97;0.20;;;;;;;-145.06;100.00;60892.56;5879381;23;20433;-93
2022/09/19 20:10:02;;;;;;;0.40;0.30;;;;;;;-145.06;100.00;60892.56;5875317;23;20011;-91
2022/09/19 20:12:41;;;;;;;0.20;0.20;;;;;;;-145.06;100.00;60892.56;5873879;23;20010;-92